Latest Weather Observations for Lucas Heights

IDN60801

Issued at 2:03 pm EST Saturday 25 April 2015 (issued every 30 minutes, with the page automatically refreshed every 10 minutes)

About weather observations | Map of weather stations | Latest weather observations for NSW | Other Formats
Station Details ID: 066023 Name: LUCAS HEIGHTS AWS Lat: -34.05 Lon: 150.98 Height: 140.0 m
Data from the previous 72 hours. | See also: Recent months for locations in New South Wales
Date/Time
EST
Temp
°C
App
Temp
°C
Dew
Point
Rel
Hum
%
Delta-T
°C
Wind Press
QNH
hPa
Press
MSL
hPa
Rain
since 9 am
mm
Dir
 
Spd
km/h
Gust
km/h
Spd
kts
Gust
kts
25/01:45pm 22.8 22.4 12.4 52 5.9 NNE 6 9 3 5 1005.1 - 0.0
25/01:30pm 22.6 22.1 12.0 51 6.0 NW 6 13 3 7 1005.4 - 0.0
25/01:15pm 22.4 22.0 12.3 52 5.8 N 6 9 3 5 1005.6 - 0.0
25/01:00pm 22.3 21.9 12.4 53 5.6 NW 6 11 3 6 1005.8 - 0.0
25/12:45pm 22.2 21.9 12.7 55 5.4 WNW 6 9 3 5 1006.1 - 0.0
25/12:30pm 22.2 22.1 13.2 56 5.2 NW 6 13 3 7 1006.4 - 0.0
25/12:15pm 21.7 21.4 12.8 57 5.1 NW 6 15 3 8 1006.6 - 0.0
25/12:00pm 21.4 20.8 12.4 56 5.1 NW 7 13 4 7 1006.9 - 0.0
25/11:45am 21.1 20.4 12.1 56 5.1 NW 7 17 4 9 1007.2 - 0.0
25/11:30am 20.8 19.7 12.0 57 5.0 NW 9 13 5 7 1007.3 - 0.0
25/11:15am 20.6 19.9 12.1 58 4.8 WNW 7 13 4 7 1007.5 - 0.0
25/11:00am 20.2 19.1 12.0 59 4.6 W 9 17 5 9 1007.6 - 0.0
25/10:45am 20.0 18.7 12.5 62 4.2 WNW 11 17 6 9 1007.8 - 0.0
25/10:30am 19.7 18.8 12.7 64 4.0 WNW 9 17 5 9 1007.8 - 0.0
25/10:15am 19.4 19.3 13.3 68 3.5 WNW 6 13 3 7 1007.9 - 0.0
25/10:00am 18.5 17.7 12.9 70 3.2 W 9 15 5 8 1008.2 - 0.0
25/09:45am 18.0 17.2 13.0 72 2.8 W 9 13 5 7 1008.4 - 0.0
25/09:30am 17.6 16.7 12.7 73 2.7 W 9 15 5 8 1008.4 - 0.0
25/09:15am 17.2 16.0 12.7 75 2.5 W 11 17 6 9 1008.5 - 0.0
25/09:00am 17.1 15.9 12.9 76 2.4 W 11 17 6 9 1008.6 - 0.0
25/08:45am 17.1 16.1 13.3 78 2.1 W 11 15 6 8 1008.4 - 0.0
25/08:30am 16.7 16.2 14.9 89 1.0 W 11 15 6 8 1008.4 - 0.0
25/08:15am 14.3 14.0 13.2 93 0.6 WSW 7 9 4 5 1008.4 - 0.0
25/08:00am 13.0 11.5 12.0 94 0.5 SSW 11 15 6 8 1008.3 - 0.0
25/07:45am 12.1 10.0 11.2 94 0.5 S 13 15 7 8 1008.2 - 0.0
25/07:30am 11.5 9.2 10.6 94 0.5 S 13 15 7 8 1008.0 - 0.0
25/07:15am 10.7 8.6 9.8 94 0.5 S 11 13 6 7 1007.9 - 0.0
25/07:00am 10.6 8.5 9.6 93 0.5 SSW 11 13 6 7 1007.8 - 0.0
25/06:45am 10.6 8.8 9.5 93 0.6 SSW 9 13 5 7 1007.7 - 0.0
25/06:30am 10.4 8.6 9.3 93 0.6 SSW 9 11 5 6 1007.6 - 0.0
25/06:15am 10.4 8.6 9.3 93 0.6 WSW 9 11 5 6 1007.5 - 0.0
25/06:00am 10.5 8.7 9.4 93 0.6 WSW 9 13 5 7 1007.5 - 0.0
25/05:45am 10.8 8.7 9.7 93 0.6 W 11 13 6 7 1007.3 - 0.0
25/05:30am 11.5 9.5 10.3 92 0.6 W 11 13 6 7 1007.2 - 0.0
25/05:15am 11.5 10.0 10.4 93 0.6 W 9 13 5 7 1007.1 - 0.0
25/05:00am 11.4 9.8 10.2 92 0.6 W 9 9 5 5 1007.1 - 0.0
25/04:45am 11.7 10.6 10.5 92 0.6 W 7 9 4 5 1006.9 - 0.0
25/04:30am 11.7 10.6 10.5 92 0.6 W 7 9 4 5 1006.9 - 0.0
25/04:15am 11.7 10.5 10.4 92 0.7 W 7 11 4 6 1006.9 - 0.0
25/04:00am 11.7 9.8 10.4 92 0.7 W 11 13 6 7 1006.9 - 0.0
25/03:45am 11.5 9.9 10.1 91 0.7 W 9 13 5 7 1006.9 - 0.0
25/03:30am 11.7 9.7 10.2 90 0.8 W 11 13 6 7 1007.0 - 0.0
25/03:15am 12.3 10.8 10.7 90 0.8 W 9 13 5 7 1007.0 - 0.0
25/03:00am 12.9 10.9 11.4 91 0.8 WSW 13 17 7 9 1007.0 - 0.0
25/02:45am 12.2 9.9 10.6 90 0.8 W 13 15 7 8 1007.0 - 0.0
25/02:30am 12.5 11.1 10.8 89 0.9 WSW 9 13 5 7 1007.0 - 0.0
25/02:15am 12.9 11.9 11.1 89 1.0 W 7 9 4 5 1007.1 - 0.0
25/02:00am 13.1 12.2 11.3 89 1.0 W 7 13 4 7 1007.1 - 0.0
25/01:45am 13.0 12.2 11.1 88 1.0 WSW 6 9 3 5 1007.2 - 0.0
25/01:30am 13.3 13.0 11.4 88 1.0 WSW 4 9 2 5 1007.2 - 0.0
25/01:15am 13.2 13.2 11.1 87 1.1 WSW 2 4 1 2 1007.2 - 0.0
25/01:00am 13.4 13.0 11.1 86 1.2 SW 4 6 2 3 1007.3 - 0.0
25/12:45am 13.5 13.1 11.0 85 1.3 SW 4 7 2 4 1007.3 - 0.0
25/12:30am 13.7 13.2 10.9 83 1.5 SW 4 7 2 4 1007.3 - 0.0
25/12:15am 14.1 13.3 10.9 81 1.7 SW 6 9 3 5 1007.3 - 0.0
25/12:00am 14.8 13.9 11.4 80 1.8 SW 7 13 4 7 1007.2 - 0.0
 
Date/Time
EST
Temp
°C
App
Temp
°C
Dew
Point
Rel
Hum
%
Delta-T
°C
Wind Press
QNH
hPa
Press
MSL
hPa
Rain
since 9 am
mm
Dir
 
Spd
km/h
Gust
km/h
Spd
kts
Gust
kts
24/11:45pm 15.6 14.7 11.4 76 2.3 WSW 7 11 4 6 1007.2 - 0.0
24/11:30pm 16.7 15.2 11.8 73 2.7 W 11 13 6 7 1007.1 - 0.0
24/11:15pm 17.8 15.9 11.9 68 3.3 W 13 17 7 9 1007.0 - 0.0
24/11:00pm 18.3 16.1 12.2 67 3.4 W 15 17 8 9 1007.0 - 0.0
24/10:45pm 18.3 15.8 12.4 68 3.3 W 17 19 9 10 1006.9 - 0.0
24/10:30pm 17.8 15.2 12.1 69 3.2 W 17 19 9 10 1006.9 - 0.0
24/10:15pm 18.1 15.2 12.3 69 3.2 WSW 19 22 10 12 1007.0 - 0.0
24/10:00pm 18.0 15.1 12.4 70 3.1 WSW 19 22 10 12 1007.0 - 0.0
24/09:45pm 17.9 14.9 12.4 70 3.1 WSW 20 22 11 12 1007.0 - 0.0
24/09:30pm 18.1 15.6 12.4 69 3.2 WSW 17 19 9 10 1007.0 - 0.0
24/09:15pm 18.3 15.9 12.6 69 3.2 WSW 17 19 9 10 1007.0 - 0.0
24/09:00pm 18.6 17.0 12.8 69 3.3 SW 13 17 7 9 1007.0 - 0.0
24/08:45pm 18.8 17.3 13.1 69 3.2 SW 13 17 7 9 1006.8 - 0.0
24/08:30pm 18.8 16.8 13.9 73 2.8 WSW 17 20 9 11 1006.8 - 0.0
24/08:15pm 17.8 15.7 14.6 81 1.9 SW 19 22 10 12 1006.7 - 0.0
24/08:00pm 16.9 15.7 14.1 83 1.6 SW 13 17 7 9 1006.6 - 0.0
24/07:45pm 17.4 16.3 14.3 82 1.8 SSW 13 15 7 8 1006.4 - 0.0
24/07:30pm 17.7 16.3 14.6 82 1.8 SW 15 17 8 9 1006.2 - 0.0
24/07:15pm 18.2 17.6 14.7 80 2.0 SW 11 15 6 8 1006.1 - 0.0
24/07:00pm 18.9 18.0 14.9 77 2.3 SW 13 17 7 9 1006.0 - 0.0
24/06:45pm 19.1 18.5 14.5 74 2.7 SSW 11 13 6 7 1005.9 - 0.0
24/06:30pm 19.8 19.5 14.4 71 3.2 SW 9 9 5 5 1005.7 - 0.0
24/06:15pm 20.5 20.2 14.5 68 3.5 SW 9 11 5 6 1005.6 - 0.0
24/06:00pm 20.7 20.5 14.8 69 3.5 SW 9 13 5 7 1005.4 - 0.0
24/05:45pm 20.7 20.2 14.9 69 3.4 SW 11 15 6 8 1005.2 - 0.0
24/05:30pm 20.8 19.9 14.9 69 3.5 SW 13 17 7 9 1005.0 - 0.0
24/05:15pm 21.2 20.6 14.5 65 3.9 WSW 11 15 6 8 1005.0 - 0.0
24/05:00pm 21.6 20.9 14.4 63 4.2 W 11 15 6 8 1004.9 - 0.0
24/04:45pm 22.5 22.2 14.5 60 4.7 W 9 13 5 7 1004.7 - 0.0
24/04:30pm 22.7 22.6 15.0 61 4.6 W 9 15 5 8 1004.6 - 0.0
24/04:15pm 23.0 22.0 14.6 59 5.0 W 13 19 7 10 1004.5 - 0.0
24/04:00pm 23.4 21.2 14.5 57 5.3 WNW 19 28 10 15 1004.4 - 0.0
24/03:45pm 24.1 22.5 14.9 56 5.5 NW 17 26 9 14 1004.3 - 0.0
24/03:30pm 24.3 23.2 15.3 57 5.4 NW 15 22 8 12 1004.3 - 0.0
24/03:15pm 24.3 22.9 15.6 58 5.3 NW 17 30 9 16 1004.2 - 0.0
24/03:00pm 24.3 23.9 16.2 60 5.0 NW 13 24 7 13 1004.2 - 0.0
24/02:45pm 24.1 24.2 16.4 62 4.7 NW 11 19 6 10 1004.4 - 0.0
24/02:30pm 23.8 24.0 16.7 64 4.4 NNW 11 20 6 11 1004.4 - 0.0
24/02:15pm 23.6 24.2 16.7 65 4.3 NW 9 15 5 8 1004.5 - 0.0
24/02:00pm 23.4 23.8 17.2 68 3.8 NNW 11 19 6 10 1004.6 - 0.0
24/01:45pm 22.6 22.9 16.9 70 3.5 NW 11 17 6 9 1004.9 - 0.0
24/01:30pm 22.6 23.3 17.1 71 3.4 NW 9 13 5 7 1005.0 - 0.0
24/01:15pm 22.3 23.0 17.1 72 3.2 NW 9 15 5 8 1005.0 - 0.0
24/01:00pm 21.7 22.6 16.5 72 3.2 NW 7 11 4 6 1005.1 - 0.0
24/12:45pm 21.7 22.6 16.7 73 3.1 NW 7 11 4 6 1005.2 - 0.0
24/12:30pm 21.6 22.4 16.3 72 3.2 NW 7 11 4 6 1005.5 - 0.0
24/12:15pm 21.9 22.9 16.8 73 3.1 NW 7 13 4 7 1005.8 - 0.0
24/12:00pm 21.4 22.3 16.6 74 2.9 NW 7 13 4 7 1006.0 - 0.0
24/11:45am 21.2 21.6 16.3 73 3.0 NW 9 17 5 9 1006.1 - 0.0
24/11:30am 21.4 21.7 16.9 75 2.8 NW 11 17 6 9 1006.4 - 0.0
24/11:15am 20.7 21.2 16.5 77 2.6 WNW 9 15 5 8 1006.6 - 0.0
24/11:00am 20.3 21.2 16.5 79 2.3 WNW 7 11 4 6 1006.7 - 0.0
24/10:45am 19.9 20.9 16.8 82 1.9 NW 7 13 4 7 1006.9 - 0.0
24/10:30am 19.4 20.6 16.8 85 1.6 WNW 6 9 3 5 1007.0 - 0.0
24/10:15am 18.6 19.4 16.3 86 1.4 WNW 7 13 4 7 1007.2 - 0.0
24/10:00am 18.1 18.4 16.0 87 1.3 NW 9 17 5 9 1007.5 - 0.0
24/09:45am 17.9 17.0 15.9 88 1.2 WNW 15 20 8 11 1007.7 - 0.0
24/09:30am 18.2 18.6 16.4 89 1.1 WNW 9 17 5 9 1007.5 - 0.0
24/09:15am 18.1 19.3 16.8 92 0.8 NW 6 11 3 6 1007.5 - 0.0
24/09:00am 17.8 18.8 16.8 94 0.6 WNW 7 13 4 7 1007.7 - 0.0
24/08:45am 17.3 18.2 16.5 95 0.5 W 7 13 4 7 1007.8 - 0.0
24/08:30am 17.2 17.7 16.6 96 0.4 W 9 15 5 8 1008.0 - 0.0
24/08:15am 17.2 18.1 16.6 96 0.4 W 7 11 4 6 1007.8 - 0.0
24/08:00am 15.7 16.0 15.1 96 0.3 WSW 7 9 4 5 1007.7 - 0.0
24/07:45am 14.9 14.9 14.3 96 0.3 SW 7 9 4 5 1007.7 - 0.0
24/07:30am 14.3 13.8 13.7 96 0.3 SW 9 9 5 5 1007.8 - 0.0
24/07:15am 13.9 13.6 13.3 96 0.3 WSW 7 9 4 5 1007.8 - 0.0
24/07:00am 13.8 13.1 13.1 96 0.4 W 9 13 5 7 1007.8 - 0.0
24/06:45am 13.8 12.7 13.0 95 0.4 W 11 13 6 7 1007.8 - 0.0
24/06:30am 14.6 14.1 13.9 96 0.4 W 9 13 5 7 1007.7 - 0.0
24/06:15am 15.4 14.9 14.8 96 0.3 W 11 15 6 8 1007.7 - 0.0
24/06:00am 15.0 14.7 14.4 96 0.3 W 9 13 5 7 1007.4 - 0.0
24/05:45am 14.3 14.3 13.6 96 0.4 W 6 11 3 6 1007.2 - 0.0
24/05:30am 14.2 14.2 13.5 96 0.4 WSW 6 7 3 4 1007.2 - 0.0
24/05:15am 14.1 14.4 13.4 96 0.4 WSW 4 7 2 4 1007.3 - 0.0
24/05:00am 14.1 14.4 13.4 96 0.4 WSW 4 6 2 3 1007.4 - 0.0
24/04:45am 14.0 13.9 13.3 96 0.4 WSW 6 7 3 4 1007.6 - 0.0
24/04:30am 14.0 13.7 13.3 96 0.4 WSW 7 9 4 5 1007.6 - 0.0
24/04:15am 14.7 14.2 13.9 95 0.5 WSW 9 11 5 6 1007.7 - 0.0
24/04:00am 15.4 15.2 14.7 96 0.4 W 9 13 5 7 1007.8 - 0.0
24/03:45am 15.4 14.8 14.7 96 0.4 W 11 15 6 8 1007.8 - 0.0
24/03:30am 14.3 13.7 13.5 95 0.4 W 9 11 5 6 1007.9 - 0.0
24/03:15am 14.1 13.5 13.4 96 0.4 SW 9 9 5 5 1008.0 - 0.0
24/03:00am 14.2 13.2 13.5 96 0.4 WSW 11 13 6 7 1008.1 - 0.0
24/02:45am 14.4 13.1 13.6 95 0.4 WSW 13 15 7 8 1008.2 - 0.0
24/02:30am 14.3 13.3 13.5 95 0.4 W 11 15 6 8 1008.5 - 0.0
24/02:15am 14.9 14.2 14.2 96 0.4 W 11 15 6 8 1008.5 - 0.0
24/02:00am 14.9 14.1 14.1 95 0.5 W 11 15 6 8 1008.5 - 0.0
24/01:45am 14.8 14.4 14.0 95 0.5 W 9 11 5 6 1008.6 - 0.0
24/01:30am 14.7 14.2 13.8 94 0.5 WSW 9 11 5 6 1008.8 - 0.0
24/01:15am 15.0 15.0 14.1 94 0.5 SW 7 11 4 6 1008.9 - 0.0
24/01:00am 14.9 14.1 14.0 94 0.5 SW 11 13 6 7 1008.9 - 0.0
24/12:45am 15.3 14.2 14.4 94 0.5 WSW 13 13 7 7 1009.1 - 0.0
24/12:30am 15.2 14.5 14.3 94 0.5 WSW 11 13 6 7 1009.2 - 0.0
24/12:15am 15.2 14.8 14.2 94 0.6 WSW 9 11 5 6 1009.4 - 0.0
24/12:00am 15.6 15.4 14.6 94 0.6 WSW 9 11 5 6 1009.6 - 0.0
 
Date/Time
EST
Temp
°C
App
Temp
°C
Dew
Point
Rel
Hum
%
Delta-T
°C
Wind Press
QNH
hPa
Press
MSL
hPa
Rain
since 9 am
mm
Dir
 
Spd
km/h
Gust
km/h
Spd
kts
Gust
kts
23/11:45pm 16.0 15.2 15.1 94 0.5 WSW 13 15 7 8 1009.8 - 0.0
23/11:30pm 16.3 15.6 15.4 94 0.5 WSW 13 15 7 8 1009.9 - 0.0
23/11:15pm 16.4 16.1 15.5 94 0.5 W 11 15 6 8 1009.9 - 0.0
23/11:00pm 15.8 16.1 14.9 94 0.5 WSW 7 9 4 5 1009.9 - 0.0
23/10:45pm 15.7 16.1 14.7 94 0.6 WSW 6 7 3 4 1010.1 - 0.0
23/10:30pm 15.8 15.6 14.8 94 0.6 SSW 9 11 5 6 1010.3 - 0.0
23/10:15pm 16.3 16.3 15.3 94 0.6 SW 9 11 5 6 1010.4 - 0.0
23/10:00pm 16.7 16.8 15.6 93 0.6 WSW 9 11 5 6 1010.6 - 0.0
23/09:45pm 16.8 17.0 15.8 94 0.6 WSW 9 9 5 5 1010.8 - 0.0
23/09:30pm 16.8 17.0 15.8 94 0.6 WSW 9 9 5 5 1010.9 - 0.0
23/09:15pm 16.3 16.7 15.3 94 0.6 WSW 7 9 4 5 1010.9 - 0.0
23/09:00pm 16.4 17.0 15.3 93 0.6 WSW 6 7 3 4 1010.9 - 0.0
23/08:45pm 16.6 17.3 15.5 93 0.6 W 6 7 3 4 1011.0 - 0.0
23/08:30pm 16.8 17.5 15.6 93 0.7 WSW 6 7 3 4 1011.0 - 0.0
23/08:15pm 17.1 18.3 15.9 93 0.7 SW 4 4 2 2 1011.0 - 0.0
23/08:00pm 17.1 17.9 15.9 93 0.7 W 6 7 3 4 1011.1 - 0.0
23/07:45pm 17.0 18.2 15.8 93 0.7 WSW 4 7 2 4 1011.0 - 0.0
23/07:30pm 16.9 18.0 15.6 92 0.8 S 4 7 2 4 1010.7 - 0.0
23/07:15pm 17.2 18.0 15.8 91 0.8 SSE 6 7 3 4 1010.7 - 0.0
23/07:00pm 17.3 18.9 15.9 91 0.8 SSE 2 4 1 2 1010.8 - 0.0
23/06:45pm 17.5 19.1 15.9 90 0.9 S 2 4 1 2 1010.7 - 0.0
23/06:30pm 17.5 18.7 15.9 90 0.9 SSE 4 7 2 4 1010.5 - 0.0
23/06:15pm 17.5 18.1 15.8 90 1.0 SE 7 9 4 5 1010.2 - 0.0
23/06:00pm 17.8 18.4 15.9 89 1.1 SE 7 11 4 6 1010.0 - 0.0
23/05:45pm 17.9 18.2 15.9 88 1.2 SE 9 15 5 8 1009.9 - 0.0
23/05:30pm 18.2 18.5 15.9 86 1.4 SE 9 13 5 7 1009.8 - 0.0
23/05:15pm 18.5 19.1 15.9 85 1.5 SE 7 9 4 5 1009.7 - 0.0
23/05:00pm 19.0 19.7 16.1 83 1.7 SE 7 15 4 8 1009.6 - 0.0
23/04:45pm 19.2 19.6 16.2 83 1.8 SE 9 13 5 7 1009.5 - 0.0
23/04:30pm 19.3 19.6 15.9 81 2.0 SSE 9 17 5 9 1009.5 - 0.0
23/04:15pm 19.7 19.6 16.0 79 2.2 SSE 11 15 6 8 1009.5 - 0.0
23/04:00pm 20.0 19.6 16.2 79 2.3 SSE 13 17 7 9 1009.6 - 0.0
23/03:45pm 20.0 20.0 16.2 79 2.3 SSE 11 17 6 9 1009.7 - 0.0
23/03:30pm 20.2 20.6 16.4 79 2.3 SSE 9 15 5 8 1009.6 - 0.0
23/03:15pm 19.9 20.2 16.1 79 2.3 SSE 9 13 5 7 1009.7 - 0.0
23/03:00pm 20.0 19.9 16.0 78 2.4 SE 11 17 6 9 1009.7 - 0.0
23/02:45pm 20.9 20.5 16.2 74 2.8 SSE 13 22 7 12 1009.8 - 0.0
23/02:30pm 21.0 20.6 16.1 73 3.0 SE 13 19 7 10 1009.8 - 0.0
23/02:15pm 21.5 21.5 16.2 72 3.2 SSE 11 19 6 10 1009.8 - 0.0
23/02:00pm 21.4 21.4 16.2 72 3.2 SSE 11 20 6 11 1009.8 - 0.0
23/01:45pm 21.2 20.7 16.0 72 3.1 SE 13 22 7 12 1009.9 - 0.0
23/01:30pm 21.3 20.5 16.1 72 3.1 SSE 15 22 8 12 1010.0 - 0.0
23/01:15pm 20.6 19.2 15.6 73 3.0 SE 17 24 9 13 1010.2 - 0.0
23/01:00pm 20.7 19.1 15.0 70 3.4 SE 17 24 9 13 1010.3 - 0.0
23/12:45pm 21.7 21.2 16.0 70 3.4 SE 13 24 7 13 1010.4 - 0.0
23/12:30pm 21.6 20.9 16.4 72 3.2 SSE 15 22 8 12 1010.6 - 0.0
23/12:15pm 21.3 21.1 16.7 75 2.8 SE 13 19 7 10 1010.8 - 0.0
23/12:00pm 21.1 21.3 16.7 76 2.7 S 11 19 6 10 1011.1 - 0.0
23/11:45am 20.6 20.8 16.7 78 2.4 SSE 11 17 6 9 1011.3 - 0.0
23/11:30am 20.1 19.7 16.2 78 2.4 S 13 19 7 10 1011.6 - 0.0
23/11:15am 20.8 20.9 16.6 77 2.6 S 11 19 6 10 1011.7 - 0.0
23/11:00am 20.8 21.4 16.8 78 2.4 S 9 17 5 9 1011.9 - 0.0
23/10:45am 20.7 20.8 16.6 77 2.5 SSE 11 19 6 10 1011.9 - 0.0
23/10:30am 20.6 19.9 16.5 77 2.5 SSE 15 22 8 12 1012.0 - 0.0
23/10:15am 20.4 20.4 17.2 82 2.0 SE 13 19 7 10 1012.0 - 0.0
23/10:00am 20.4 21.3 18.5 89 1.2 SE 11 19 6 10 1012.1 - 0.0
23/09:45am 19.4 20.6 18.3 93 0.7 SSE 9 15 5 8 1012.3 - 0.0
23/09:30am 18.3 18.8 17.4 94 0.5 S 11 15 6 8 1012.4 - 0.0
23/09:15am 17.9 18.6 17.1 95 0.5 S 9 13 5 7 1012.4 - 0.0
23/09:00am 18.2 18.7 17.4 95 0.5 S 11 13 6 7 1012.3 - 27.5
23/08:45am 18.0 18.8 17.3 96 0.4 S 9 13 5 7 1012.4 - 27.5
23/08:30am 17.6 18.3 17.0 96 0.4 S 9 13 5 7 1012.4 - 27.5
23/08:15am 17.1 17.6 16.5 96 0.4 S 9 13 5 7 1012.4 - 27.5
23/08:00am 16.1 15.4 15.5 96 0.4 SSW 13 17 7 9 1012.4 - 27.5
23/07:45am 15.7 15.3 15.1 96 0.3 SSW 11 17 6 9 1012.4 - 27.5
23/07:30am 15.5 14.6 14.9 96 0.3 S 13 17 7 9 1012.3 - 27.5
23/07:15am 15.4 14.5 14.8 96 0.3 S 13 17 7 9 1012.4 - 27.5
23/07:00am 15.1 14.1 14.5 96 0.3 S 13 17 7 9 1012.4 - 27.5
23/06:45am 15.1 14.1 14.5 96 0.3 S 13 17 7 9 1012.2 - 27.5
23/06:30am 14.8 13.3 14.1 96 0.4 S 15 19 8 10 1012.0 - 27.5
23/06:15am 15.2 13.5 14.6 96 0.3 S 17 20 9 11 1011.7 - 27.5
23/06:00am 15.2 13.5 14.6 96 0.3 S 17 20 9 11 1011.4 - 27.4
23/05:45am 15.2 13.1 14.6 96 0.3 S 19 22 10 12 1011.3 - 27.4
23/05:30am 15.1 12.9 14.5 96 0.3 S 19 24 10 13 1011.1 - 27.4
23/05:15am 14.9 12.5 14.3 96 0.3 SSE 20 28 11 15 1011.0 - 27.4
23/05:00am 14.5 12.1 13.8 96 0.4 SSE 19 26 10 14 1010.9 - 27.4
23/04:45am 14.5 13.2 13.8 96 0.4 SSE 13 19 7 10 1010.8 - 27.4
23/04:30am 14.6 13.4 13.9 96 0.4 SSE 13 17 7 9 1010.6 - 27.4
23/04:15am 14.5 13.2 13.8 96 0.4 SSE 13 17 7 9 1010.5 - 27.4
23/04:00am 14.6 13.4 13.9 96 0.4 SSE 13 17 7 9 1010.5 - 27.4
23/03:45am 14.5 13.3 13.9 96 0.3 SSE 13 17 7 9 1010.5 - 27.4
23/03:30am 14.2 12.8 13.5 96 0.4 SSE 13 17 7 9 1010.4 - 27.4
23/03:15am 14.3 13.0 13.6 96 0.4 SSE 13 15 7 8 1010.5 - 27.4
23/03:00am 14.3 12.9 13.5 95 0.4 S 13 17 7 9 1010.6 - 27.4
23/02:45am 14.4 13.1 13.6 95 0.4 S 13 17 7 9 1010.7 - 27.4
23/02:30am 14.9 13.7 14.1 95 0.5 S 13 17 7 9 1010.7 - 27.4
23/02:15am 15.1 14.0 14.4 96 0.4 S 13 19 7 10 1010.7 - 27.4
23/02:00am 15.3 13.9 14.5 95 0.5 S 15 17 8 9 1010.8 - 27.4
23/01:45am 15.4 13.7 14.6 95 0.5 S 17 20 9 11 1011.0 - 27.4
23/01:30am 15.6 14.7 14.9 96 0.4 S 13 19 7 10 1011.2 - 27.4
23/01:15am 15.7 14.8 14.9 95 0.5 S 13 19 7 10 1011.2 - 27.4
23/01:00am 16.0 14.5 15.3 96 0.4 S 17 22 9 12 1011.3 - 27.4
23/12:45am 16.2 14.7 15.4 95 0.5 S 17 22 9 12 1011.3 - 27.4
23/12:30am 16.1 14.6 15.3 95 0.5 S 17 26 9 14 1011.4 - 27.4
23/12:15am 15.9 14.7 15.0 94 0.5 S 15 22 8 12 1011.4 - 27.4
23/12:00am 16.1 15.0 15.3 95 0.5 S 15 20 8 11 1011.4 - 27.4
 
Date/Time
EST
Temp
°C
App
Temp
°C
Dew
Point
Rel
Hum
%
Delta-T
°C
Wind Press
QNH
hPa
Press
MSL
hPa
Rain
since 9 am
mm
Dir
 
Spd
km/h
Gust
km/h
Spd
kts
Gust
kts
22/11:45pm 16.2 15.5 15.5 96 0.4 S 13 20 7 11 1011.6 - 27.4
22/11:30pm 16.4 15.8 15.6 95 0.5 S 13 20 7 11 1011.7 - 27.4
22/11:15pm 16.5 15.9 15.7 95 0.5 SSE 13 19 7 10 1011.8 - 27.4
22/11:00pm 16.6 15.3 15.8 95 0.5 SSE 17 22 9 12 1011.9 - 27.4
22/10:45pm 16.6 14.9 15.8 95 0.5 SSE 19 26 10 14 1011.9 - 27.4
22/10:30pm 16.6 15.3 15.8 95 0.5 SSE 17 33 9 18 1011.8 - 27.4
22/10:15pm 16.5 15.9 15.7 95 0.5 S 13 19 7 10 1011.8 - 27.2
22/10:00pm 16.5 16.3 15.6 94 0.5 S 11 19 6 10 1012.0 - 27.2
22/09:45pm 16.5 15.9 15.6 94 0.5 S 13 20 7 11 1012.0 - 27.2
22/09:30pm 16.5 15.9 15.6 94 0.5 S 13 24 7 13 1012.0 - 27.0
22/09:15pm 16.5 15.5 15.6 94 0.5 S 15 28 8 15 1012.1 - 26.5
22/09:00pm 16.5 15.1 15.6 94 0.5 S 17 30 9 16 1011.8 - 26.5
22/08:45pm 16.6 14.7 15.7 94 0.5 S 20 37 11 20 1011.7 - 26.3
22/08:30pm 16.6 14.7 15.7 94 0.5 S 20 33 11 18 1011.8 - 25.9
22/08:15pm 16.5 14.7 15.5 94 0.6 S 19 32 10 17 1011.7 - 25.7
22/08:00pm 16.5 14.7 15.5 94 0.6 S 19 35 10 19 1011.7 - 25.7
22/07:45pm 16.4 14.6 15.4 94 0.6 S 19 33 10 18 1011.6 - 25.7
22/07:30pm 16.4 14.6 15.4 94 0.6 S 19 32 10 17 1011.5 - 25.7
22/07:15pm 16.5 14.5 15.4 93 0.6 S 20 35 11 19 1011.5 - 25.7
22/07:00pm 16.5 14.6 15.3 93 0.7 S 19 32 10 17 1011.5 - 25.7
22/06:45pm 16.6 14.7 15.3 92 0.8 S 19 32 10 17 1011.5 - 25.6
22/06:30pm 16.6 14.5 15.2 91 0.8 S 20 33 11 18 1011.3 - 24.8
22/06:15pm 16.7 14.8 15.2 91 0.9 S 19 32 10 17 1011.2 - 24.8
22/06:00pm 16.9 15.0 15.3 90 0.9 S 19 28 10 15 1011.1 - 24.8
22/05:45pm 16.9 15.0 15.3 90 0.9 S 19 28 10 15 1010.9 - 24.8
22/05:30pm 16.9 15.0 15.3 90 0.9 S 19 32 10 17 1010.8 - 24.8
22/05:15pm 17.0 15.1 15.3 90 1.0 S 19 30 10 16 1010.8 - 24.8
22/05:00pm 17.2 14.8 15.4 89 1.1 S 22 37 12 20 1010.8 - 24.8
22/04:45pm 17.2 15.2 15.4 89 1.1 S 20 35 11 19 1010.7 - 24.8
22/04:30pm 17.2 14.8 15.3 88 1.1 S 22 35 12 19 1010.6 - 24.8
22/04:15pm 17.4 15.0 15.5 89 1.1 S 22 43 12 23 1010.5 - 24.8
22/04:00pm 17.4 15.4 15.6 89 1.1 S 20 39 11 21 1010.5 - 24.8
22/03:45pm 17.1 14.3 15.4 90 1.0 S 24 41 13 22 1010.5 - 24.8
22/03:30pm 17.1 14.4 15.5 90 0.9 S 24 50 13 27 1010.6 - 24.8
22/03:15pm 17.3 13.2 15.9 91 0.8 S 32 50 17 27 1010.6 - 24.8
22/03:00pm 16.9 13.1 15.8 93 0.6 S 30 44 16 24 1010.6 - 24.8
22/02:45pm 16.4 12.4 15.3 93 0.6 S 30 43 16 23 1010.8 - 24.8
22/02:30pm 16.3 12.3 15.2 93 0.6 S 30 48 16 26 1010.9 - 24.7
22/02:15pm 16.0 13.4 14.8 93 0.7 SSW 22 33 12 18 1011.1 - 24.7

Other Formats:

Comma delimited format used in spreadsheet applications
http://www.bom.gov.au/fwo/IDN60801/IDN60801.95757.axf

JavaScript Object Notation format (JSON) in row-major order
http://www.bom.gov.au/fwo/IDN60801/IDN60801.95757.json